createdAt,value
2022-12-11T00:00:29.583Z,14.73
2022-12-11T00:04:39.114Z,13.95
2022-12-11T00:06:43.891Z,15.68
2022-12-11T00:08:49.036Z,15.88
2022-12-11T00:12:58.521Z,14.73
2022-12-11T00:15:06.158Z,15.40
2022-12-11T00:17:11.029Z,16.20
2022-12-11T00:19:15.833Z,16.15
2022-12-11T00:21:20.630Z,16.52
2022-12-11T00:23:25.432Z,15.05
2022-12-11T00:25:30.242Z,14.50
2022-12-11T00:27:35.025Z,14.30
2022-12-11T00:29:40.296Z,15.15
2022-12-11T00:31:47.722Z,13.43
2022-12-11T00:33:53.838Z,14.55
2022-12-11T00:35:59.540Z,13.80
2022-12-11T00:38:04.301Z,14.27
2022-12-11T00:40:10.698Z,12.82
2022-12-11T00:42:16.212Z,14.50
2022-12-11T00:44:21.035Z,14.48
2022-12-11T00:46:25.900Z,16.58
2022-12-11T00:48:33.363Z,15.60
2022-12-11T00:50:38.744Z,14.95
2022-12-11T00:52:43.547Z,16.23
2022-12-11T00:54:48.440Z,15.65
2022-12-11T00:56:53.471Z,15.57
2022-12-11T00:58:58.278Z,16.58
2022-12-11T01:01:09.018Z,14.57
2022-12-11T01:03:17.070Z,14.95
2022-12-11T01:05:24.587Z,15.82
2022-12-11T01:07:29.492Z,15.40
2022-12-11T01:09:46.693Z,16.45
2022-12-11T01:11:51.627Z,15.82
2022-12-11T01:13:56.379Z,15.00
2022-12-11T01:16:01.747Z,15.60
2022-12-11T01:18:07.005Z,17.42
2022-12-11T01:22:19.497Z,15.00
2022-12-11T01:24:24.397Z,16.73
2022-12-11T01:26:30.736Z,16.73
2022-12-11T01:28:35.602Z,15.32
2022-12-11T01:30:40.549Z,15.80
2022-12-11T01:32:45.761Z,15.27
2022-12-11T01:36:55.319Z,17.80
2022-12-11T01:39:02.681Z,17.55
2022-12-11T01:41:07.811Z,18.30
2022-12-11T01:45:42.086Z,19.42
2022-12-11T01:47:47.221Z,18.02
2022-12-11T01:52:00.892Z,19.85
2022-12-11T01:54:10.675Z,19.42
2022-12-11T01:56:16.128Z,19.17
2022-12-11T01:58:23.597Z,17.58
2022-12-11T02:00:28.320Z,16.70
2022-12-11T02:02:34.289Z,17.48
2022-12-11T02:04:41.816Z,17.92
2022-12-11T02:06:48.699Z,18.25
2022-12-11T02:08:53.464Z,19.83
2022-12-11T02:11:14.338Z,19.42
2022-12-11T02:13:32.696Z,17.33
2022-12-11T02:15:42.361Z,16.98
2022-12-11T02:17:53.947Z,17.33
2022-12-11T02:20:07.380Z,16.85
2022-12-11T02:22:17.092Z,18.25
2022-12-11T02:24:41.027Z,19.13
2022-12-11T02:27:14.265Z,18.17
2022-12-11T02:29:25.918Z,19.23
2022-12-11T02:31:37.491Z,18.60
2022-12-11T02:33:48.224Z,18.30
2022-12-11T02:35:53.715Z,18.45
2022-12-11T02:38:04.337Z,18.33
2022-12-11T02:40:13.901Z,15.85
2022-12-11T02:42:19.258Z,17.17
2022-12-11T02:44:30.254Z,16.13
2022-12-11T02:46:37.607Z,17.02
2022-12-11T02:48:44.694Z,16.17
2022-12-11T02:50:51.634Z,17.52
2022-12-11T02:52:59.402Z,17.00
2022-12-11T02:55:06.289Z,15.35
2022-12-11T02:57:14.921Z,16.27
2022-12-11T02:59:23.522Z,15.02
2022-12-11T03:01:31.406Z,14.52
2022-12-11T03:03:36.399Z,15.13
2022-12-11T03:05:42.278Z,16.05
2022-12-11T03:07:47.875Z,15.65
2022-12-11T03:09:53.089Z,17.02
2022-12-11T03:14:03.383Z,15.23
2022-12-11T03:16:18.961Z,15.13
2022-12-11T03:18:33.795Z,15.75
2022-12-11T03:20:43.993Z,16.02
2022-12-11T03:22:53.476Z,17.45
2022-12-11T03:25:04.854Z,16.90
2022-12-11T03:27:18.445Z,15.98
2022-12-11T03:29:26.229Z,16.88
2022-12-11T03:31:34.740Z,15.23
2022-12-11T03:33:44.706Z,18.83
2022-12-11T03:35:54.783Z,16.92
2022-12-11T03:38:03.393Z,17.70
2022-12-11T03:40:13.845Z,16.65
2022-12-11T03:42:22.264Z,17.20
2022-12-11T03:44:27.947Z,17.27
2022-12-11T03:46:36.260Z,19.20
2022-12-11T03:48:47.583Z,18.13
2022-12-11T03:50:53.529Z,18.63
2022-12-11T03:53:00.995Z,18.38
2022-12-11T03:55:08.290Z,18.73
2022-12-11T03:57:16.884Z,20.30
2022-12-11T03:59:21.727Z,17.90
2022-12-11T04:01:26.512Z,19.15
2022-12-11T04:03:31.495Z,21.73
2022-12-11T04:05:39.200Z,20.05
2022-12-11T04:07:43.995Z,19.63
2022-12-11T04:09:48.924Z,21.52
2022-12-11T04:11:53.762Z,20.13
2022-12-11T04:14:10.784Z,20.05
2022-12-11T04:16:15.799Z,20.63
2022-12-11T04:18:33.047Z,20.15
2022-12-11T04:21:01.635Z,20.58
2022-12-11T04:23:19.606Z,19.75
2022-12-11T04:25:24.456Z,20.60
2022-12-11T04:27:42.227Z,21.35
2022-12-11T04:29:47.089Z,20.83
2022-12-11T04:31:52.339Z,21.40
2022-12-11T04:33:57.136Z,21.40
2022-12-11T04:36:04.603Z,20.25
2022-12-11T04:38:09.372Z,20.52
2022-12-11T04:40:18.755Z,22.08
2022-12-11T04:42:23.619Z,19.83
2022-12-11T04:44:28.395Z,21.63
2022-12-11T04:46:33.319Z,21.83
2022-12-11T04:48:39.121Z,19.88
2022-12-11T04:50:43.927Z,20.85
2022-12-11T04:52:52.514Z,21.33
2022-12-11T04:54:57.362Z,20.15
2022-12-11T04:57:02.112Z,21.35
2022-12-11T04:59:07.037Z,20.17
2022-12-11T05:01:12.455Z,21.17
2022-12-11T05:03:17.362Z,19.85
2022-12-11T05:05:22.390Z,21.75
2022-12-11T05:07:27.263Z,21.50
2022-12-11T05:09:34.612Z,21.65
2022-12-11T05:11:39.560Z,21.10
2022-12-11T05:13:48.174Z,21.08
2022-12-11T05:15:53.054Z,21.27
2022-12-11T05:17:58.043Z,22.52
2022-12-11T05:20:02.895Z,20.40
2022-12-11T05:22:07.636Z,21.50
2022-12-11T05:24:12.433Z,20.17
2022-12-11T05:26:21.441Z,20.48
2022-12-11T05:28:27.683Z,20.67
2022-12-11T05:30:32.508Z,19.77
2022-12-11T05:32:37.314Z,20.52
2022-12-11T05:34:42.323Z,20.92
2022-12-11T05:36:47.383Z,20.05
2022-12-11T05:38:53.208Z,20.33
2022-12-11T05:41:02.251Z,19.90
2022-12-11T05:43:09.663Z,20.42
2022-12-11T05:45:14.607Z,19.27
2022-12-11T05:47:20.342Z,20.25
2022-12-11T05:49:30.652Z,20.75
2022-12-11T05:51:36.834Z,17.98
2022-12-11T05:53:43.249Z,17.08
2022-12-11T05:55:48.056Z,18.02
2022-12-11T05:57:52.852Z,18.52
2022-12-11T06:00:00.169Z,18.63
2022-12-11T06:02:05.177Z,17.80
2022-12-11T06:04:12.148Z,16.75
2022-12-11T06:06:17.816Z,17.50
2022-12-11T06:08:22.754Z,14.77
2022-12-11T06:10:27.618Z,15.50
2022-12-11T06:12:32.742Z,16.15
2022-12-11T06:14:37.598Z,16.30
2022-12-11T06:16:45.072Z,17.55
2022-12-11T06:18:50.318Z,18.23
2022-12-11T06:22:59.643Z,15.75
2022-12-11T06:25:04.610Z,15.98
2022-12-11T06:27:09.479Z,17.00
2022-12-11T06:29:14.460Z,16.42
2022-12-11T06:31:19.853Z,16.63
2022-12-11T06:33:27.312Z,15.90
2022-12-11T06:35:32.954Z,16.58
2022-12-11T06:37:40.823Z,16.15
2022-12-11T06:39:45.674Z,15.15
2022-12-11T06:41:50.455Z,17.38
2022-12-11T06:43:55.384Z,16.20
2022-12-11T06:46:03.772Z,16.40
2022-12-11T06:48:09.870Z,16.38
2022-12-11T06:50:17.308Z,15.82
2022-12-11T06:52:22.485Z,17.38
2022-12-11T06:56:33.412Z,17.02
2022-12-11T06:58:39.520Z,17.90
2022-12-11T07:00:44.430Z,18.48
2022-12-11T07:02:49.293Z,17.73
2022-12-11T07:04:55.411Z,16.83
2022-12-11T07:07:02.886Z,17.55
2022-12-11T07:09:08.570Z,18.30
2022-12-11T07:11:15.350Z,17.77
2022-12-11T07:13:20.253Z,18.00
2022-12-11T07:15:25.046Z,17.70
2022-12-11T07:17:31.107Z,17.52
2022-12-11T07:19:35.928Z,19.38
2022-12-11T07:21:40.894Z,18.45
2022-12-11T07:23:48.891Z,18.88
2022-12-11T07:25:53.786Z,18.75
2022-12-11T07:27:58.582Z,18.88
2022-12-11T07:30:03.428Z,19.58
2022-12-11T07:32:09.231Z,17.55
2022-12-11T07:34:15.710Z,16.88
2022-12-11T07:36:20.513Z,19.42
2022-12-11T07:38:25.282Z,18.17
2022-12-11T07:40:32.710Z,18.92
2022-12-11T07:42:41.389Z,18.95
2022-12-11T07:44:49.832Z,19.40
2022-12-11T07:46:54.739Z,18.40
2022-12-11T07:49:00.937Z,17.90
2022-12-11T07:51:12.864Z,18.80
2022-12-11T07:53:17.939Z,20.60
2022-12-11T07:55:22.688Z,18.05
2022-12-11T07:57:30.425Z,19.38
2022-12-11T07:59:35.464Z,17.75
2022-12-11T08:01:42.611Z,19.13
2022-12-11T08:03:47.619Z,17.08
2022-12-11T08:05:53.486Z,17.73
2022-12-11T08:07:58.379Z,16.85
2022-12-11T08:10:04.291Z,17.60
2022-12-11T08:12:09.421Z,18.55
2022-12-11T08:14:18.448Z,18.73
2022-12-11T08:16:23.536Z,18.27
2022-12-11T08:18:28.576Z,17.67
2022-12-11T08:20:33.877Z,17.90
2022-12-11T08:22:38.764Z,18.10
2022-12-11T08:24:43.606Z,22.17
2022-12-11T08:26:48.572Z,19.65
2022-12-11T08:28:53.768Z,17.45
2022-12-11T08:33:06.655Z,19.10
2022-12-11T08:35:12.613Z,18.67
2022-12-11T08:37:17.646Z,17.65
2022-12-11T08:39:22.506Z,16.95
2022-12-11T08:41:29.005Z,17.95
2022-12-11T08:43:36.175Z,19.38
2022-12-11T08:45:41.487Z,17.88
2022-12-11T08:47:48.925Z,17.70
2022-12-11T08:49:53.734Z,16.63
2022-12-11T08:51:58.695Z,17.55
2022-12-11T08:54:04.122Z,17.95
2022-12-11T08:56:11.080Z,18.65
2022-12-11T08:58:15.871Z,17.17
2022-12-11T09:00:21.559Z,84.07
2022-12-11T09:02:26.488Z,31.67
2022-12-11T09:04:34.138Z,21.92
2022-12-11T09:06:38.991Z,21.13
2022-12-11T09:08:50.383Z,21.15
2022-12-11T09:10:57.317Z,18.02
2022-12-11T09:13:02.275Z,17.15
2022-12-11T09:15:08.055Z,19.10
2022-12-11T09:17:12.864Z,16.67
2022-12-11T09:19:18.567Z,16.85
2022-12-11T09:21:28.056Z,16.23
2022-12-11T09:23:32.992Z,19.55
2022-12-11T09:25:37.766Z,16.83
2022-12-11T09:27:49.436Z,19.13
2022-12-11T09:29:54.270Z,17.02
2022-12-11T09:31:59.146Z,16.45
2022-12-11T09:34:08.274Z,16.88
2022-12-11T09:36:13.852Z,16.48
2022-12-11T09:38:21.238Z,16.23
2022-12-11T09:40:26.391Z,15.95
2022-12-11T09:44:46.314Z,16.77
2022-12-11T09:46:51.886Z,15.45
2022-12-11T09:48:57.726Z,15.73
2022-12-11T09:51:09.151Z,14.68
2022-12-11T09:53:19.392Z,16.23
2022-12-11T09:55:29.310Z,15.57
2022-12-11T09:57:44.588Z,15.95
2022-12-11T10:00:05.990Z,17.77
2022-12-11T10:02:25.898Z,14.57
2022-12-11T10:04:41.173Z,16.42
2022-12-11T10:06:51.535Z,15.45
2022-12-11T10:09:06.335Z,16.15
2022-12-11T10:11:34.701Z,16.20
2022-12-11T10:13:46.938Z,15.65
2022-12-11T10:15:57.731Z,16.00
2022-12-11T10:18:05.310Z,14.20
2022-12-11T10:20:22.972Z,15.18
2022-12-11T10:22:32.742Z,17.30
2022-12-11T10:25:12.964Z,14.70
2022-12-11T10:27:20.079Z,14.98
2022-12-11T10:29:24.982Z,15.80
2022-12-11T10:31:41.195Z,14.90
2022-12-11T10:33:56.919Z,15.82
2022-12-11T10:36:02.159Z,14.90
2022-12-11T10:40:24.953Z,15.40
2022-12-11T10:42:32.334Z,14.73
2022-12-11T10:44:37.750Z,15.65
2022-12-11T10:46:42.615Z,15.52
2022-12-11T10:48:53.435Z,15.32
2022-12-11T10:51:05.271Z,15.55
2022-12-11T10:53:24.155Z,16.00
2022-12-11T10:55:32.088Z,15.65
2022-12-11T10:57:42.045Z,14.93
2022-12-11T10:59:49.719Z,13.45
2022-12-11T11:01:54.803Z,13.43
2022-12-11T11:04:03.193Z,14.38
2022-12-11T11:06:10.251Z,13.52
2022-12-11T11:08:19.363Z,12.75
2022-12-11T11:10:24.472Z,12.43
2022-12-11T11:12:30.540Z,11.38
2022-12-11T11:14:37.971Z,12.38
2022-12-11T11:16:44.288Z,11.77
2022-12-11T11:18:55.935Z,12.02
2022-12-11T11:21:01.534Z,12.63
2022-12-11T11:23:16.200Z,11.98
2022-12-11T11:25:23.787Z,12.18
2022-12-11T11:27:34.194Z,12.73
2022-12-11T11:29:41.784Z,12.02
2022-12-11T11:31:46.615Z,13.50
2022-12-11T11:33:58.829Z,13.40
2022-12-11T11:36:06.273Z,13.13
2022-12-11T11:38:20.497Z,14.00
2022-12-11T11:40:30.519Z,14.40
2022-12-11T11:42:46.160Z,14.50
2022-12-11T11:45:05.533Z,16.63
2022-12-11T11:47:17.180Z,14.02
2022-12-11T11:49:29.008Z,13.85
2022-12-11T11:51:38.888Z,13.70
2022-12-11T11:53:43.902Z,13.20
2022-12-11T11:55:57.138Z,13.48
2022-12-11T11:58:08.808Z,13.20
2022-12-11T12:00:28.862Z,13.13
2022-12-11T12:02:38.910Z,13.20
2022-12-11T12:04:44.420Z,13.32
2022-12-11T12:07:12.359Z,13.10
2022-12-11T12:09:29.239Z,13.65
2022-12-11T12:11:40.713Z,14.15
2022-12-11T12:13:52.692Z,11.63
2022-12-11T12:16:02.916Z,12.18
2022-12-11T12:18:18.597Z,11.38
2022-12-11T12:20:33.699Z,13.25
2022-12-11T12:23:00.869Z,13.18
2022-12-11T12:25:18.465Z,13.00
2022-12-11T12:27:51.655Z,11.93
2022-12-11T12:30:01.947Z,11.50
2022-12-11T12:32:17.142Z,12.20
2022-12-11T12:34:35.571Z,11.05
2022-12-11T12:36:49.110Z,11.27
2022-12-11T12:38:57.831Z,10.82
2022-12-11T12:41:14.276Z,11.40
2022-12-11T12:43:37.237Z,10.70
2022-12-11T12:45:51.738Z,10.75
2022-12-11T12:47:59.772Z,10.38
2022-12-11T12:50:08.055Z,11.48
2022-12-11T12:52:18.211Z,11.90
2022-12-11T12:54:27.426Z,12.48
2022-12-11T12:56:35.145Z,13.25
2022-12-11T12:58:45.531Z,13.55
2022-12-11T13:00:50.932Z,13.07
2022-12-11T13:02:59.245Z,11.98
2022-12-11T13:05:09.764Z,17.50
2022-12-11T13:07:18.916Z,14.88
2022-12-11T13:09:26.552Z,13.38
2022-12-11T13:11:36.738Z,14.93
2022-12-11T13:13:44.003Z,12.05
2022-12-11T13:15:49.318Z,11.90
2022-12-11T13:17:54.291Z,10.30
2022-12-11T13:20:26.875Z,11.52
2022-12-11T13:22:31.762Z,11.50
2022-12-11T13:24:37.076Z,11.73
2022-12-11T13:26:42.587Z,11.10
2022-12-11T13:28:51.963Z,11.70
2022-12-11T13:31:27.458Z,12.02
2022-12-11T13:33:33.402Z,11.00
2022-12-11T13:35:42.071Z,11.00
2022-12-11T13:37:49.232Z,9.90
2022-12-11T13:39:55.016Z,10.27
2022-12-11T13:42:04.102Z,10.40
2022-12-11T13:44:10.079Z,7.50
2022-12-11T13:46:17.685Z,8.00
2022-12-11T13:48:28.647Z,8.25
2022-12-11T13:50:37.085Z,9.48
2022-12-11T13:52:44.505Z,11.10
2022-12-11T13:54:54.017Z,11.02
2022-12-11T13:57:04.939Z,9.52
2022-12-11T13:59:24.178Z,8.95
2022-12-11T14:01:33.048Z,8.38
2022-12-11T14:03:38.687Z,9.75
2022-12-11T14:05:44.776Z,9.27
2022-12-11T14:07:54.804Z,9.65
2022-12-11T14:10:05.809Z,9.63
2022-12-11T14:12:18.627Z,18.80
2022-12-11T14:14:27.538Z,20.25
2022-12-11T14:16:33.565Z,14.75
2022-12-11T14:18:39.597Z,28.35
2022-12-11T14:20:45.281Z,12.55
2022-12-11T14:22:53.172Z,8.93
2022-12-11T14:24:59.764Z,10.50
2022-12-11T14:27:04.875Z,10.63
2022-12-11T14:31:18.854Z,9.35
2022-12-11T14:33:26.692Z,8.82
2022-12-11T14:35:38.947Z,9.55
2022-12-11T14:37:44.613Z,9.55
2022-12-11T14:39:59.636Z,10.55
2022-12-11T14:42:07.619Z,9.70
2022-12-11T14:44:18.306Z,10.02
2022-12-11T14:46:28.612Z,9.68
2022-12-11T14:48:38.536Z,9.30
2022-12-11T14:50:48.726Z,9.63
2022-12-11T14:52:56.747Z,11.63
2022-12-11T14:55:10.631Z,10.43
2022-12-11T14:57:22.171Z,10.43
2022-12-11T14:59:32.052Z,10.57
2022-12-11T15:01:39.322Z,10.02
2022-12-11T15:03:45.235Z,10.57
2022-12-11T15:05:53.463Z,11.10
2022-12-11T15:08:01.276Z,10.40
2022-12-11T15:10:09.184Z,12.15
2022-12-11T15:12:16.576Z,11.20
2022-12-11T15:14:24.003Z,11.13
2022-12-11T15:16:34.233Z,10.55
2022-12-11T15:18:43.301Z,14.13
2022-12-11T15:20:54.028Z,15.95
2022-12-11T15:23:03.387Z,22.60
2022-12-11T15:25:22.026Z,13.80
2022-12-11T15:27:33.496Z,12.85
2022-12-11T15:29:40.887Z,11.68
2022-12-11T15:31:46.033Z,10.98
2022-12-11T15:36:03.925Z,10.85
2022-12-11T15:38:09.210Z,11.63
2022-12-11T15:40:17.492Z,11.73
2022-12-11T15:42:28.225Z,13.18
2022-12-11T15:44:33.018Z,11.35
2022-12-11T15:46:39.000Z,12.60
2022-12-11T15:48:43.949Z,11.85
2022-12-11T15:50:48.812Z,14.35
2022-12-11T15:52:55.622Z,13.15
2022-12-11T15:55:00.522Z,13.48
2022-12-11T15:57:10.365Z,12.82
2022-12-11T15:59:15.347Z,14.65
2022-12-11T16:01:20.923Z,14.02
2022-12-11T16:03:26.231Z,13.98
2022-12-11T16:07:36.553Z,13.98
2022-12-11T16:09:41.436Z,12.50
2022-12-11T16:11:46.371Z,12.93
2022-12-11T16:13:53.761Z,13.68
2022-12-11T16:15:58.654Z,13.63
2022-12-11T16:18:05.212Z,14.00
2022-12-11T16:20:13.438Z,13.35
2022-12-11T16:22:19.605Z,14.30
2022-12-11T16:24:24.471Z,14.02
2022-12-11T16:26:29.411Z,12.85
2022-12-11T16:28:34.285Z,13.75
2022-12-11T16:30:43.537Z,12.90
2022-12-11T16:32:48.569Z,14.60
2022-12-11T16:34:54.189Z,14.50
2022-12-11T16:37:01.498Z,14.52
2022-12-11T16:39:06.765Z,13.60
2022-12-11T16:41:11.693Z,12.13
2022-12-11T16:43:16.722Z,13.43
2022-12-11T16:45:23.725Z,14.35
2022-12-11T16:47:32.739Z,13.45
2022-12-11T16:49:37.537Z,14.68
2022-12-11T16:51:42.290Z,14.07
2022-12-11T16:53:47.390Z,13.48
2022-12-11T16:55:52.529Z,13.00
2022-12-11T16:57:57.643Z,13.95
2022-12-11T17:02:07.032Z,14.27
2022-12-11T17:04:14.497Z,14.57
2022-12-11T17:06:20.443Z,14.07
2022-12-11T17:08:25.469Z,15.57
2022-12-11T17:12:37.183Z,14.38
2022-12-11T17:14:42.217Z,15.38
2022-12-11T17:16:48.194Z,13.48
2022-12-11T17:18:53.624Z,15.25
2022-12-11T17:21:01.040Z,15.02
2022-12-11T17:23:05.855Z,15.23
2022-12-11T17:25:12.265Z,17.50
2022-12-11T17:27:17.291Z,16.52
2022-12-11T17:29:22.504Z,15.85
2022-12-11T17:31:27.826Z,16.55
2022-12-11T17:33:32.623Z,16.88
2022-12-11T17:35:37.552Z,17.98
2022-12-11T17:37:45.099Z,17.40
2022-12-11T17:39:50.119Z,18.63
2022-12-11T17:41:54.991Z,16.48
2022-12-11T17:44:00.084Z,18.95
2022-12-11T17:46:05.656Z,16.58
2022-12-11T17:48:10.603Z,17.63
2022-12-11T17:50:15.454Z,16.88
2022-12-11T17:52:20.280Z,19.20
2022-12-11T17:54:27.685Z,18.67
2022-12-11T17:56:34.814Z,19.33
2022-12-11T17:58:39.640Z,18.77
2022-12-11T18:00:47.253Z,20.58
2022-12-11T18:02:52.229Z,19.13
2022-12-11T18:04:57.237Z,20.25
2022-12-11T18:07:02.024Z,19.80
2022-12-11T18:09:07.684Z,20.73
2022-12-11T18:11:17.852Z,20.45
2022-12-11T18:13:23.365Z,20.77
2022-12-11T18:15:28.480Z,19.38
2022-12-11T18:19:44.401Z,22.00
2022-12-11T18:21:51.308Z,21.17
2022-12-11T18:26:01.715Z,21.85
2022-12-11T18:28:10.209Z,20.98
2022-12-11T18:30:16.977Z,21.15
2022-12-11T18:32:22.394Z,22.85
2022-12-11T18:34:27.487Z,23.70
2022-12-11T18:36:32.808Z,23.00
2022-12-11T18:38:38.163Z,23.33
2022-12-11T18:40:43.621Z,23.55
2022-12-11T18:42:48.623Z,24.27
2022-12-11T18:44:56.194Z,23.30
2022-12-11T18:47:01.090Z,22.77
2022-12-11T18:49:05.890Z,24.08
2022-12-11T18:51:12.706Z,24.52
2022-12-11T18:53:18.323Z,23.85
2022-12-11T18:55:23.232Z,22.23
2022-12-11T18:57:28.142Z,21.55
2022-12-11T18:59:32.936Z,20.35
2022-12-11T19:01:40.415Z,20.48
2022-12-11T19:03:45.493Z,19.58
2022-12-11T19:05:50.282Z,20.83
2022-12-11T19:07:55.122Z,20.83
2022-12-11T19:09:59.957Z,21.08
2022-12-11T19:12:05.045Z,21.63
2022-12-11T19:14:10.641Z,21.52
2022-12-11T19:16:19.838Z,21.83
2022-12-11T19:18:27.613Z,22.10
2022-12-11T19:20:48.735Z,21.63
2022-12-11T19:22:54.863Z,25.60
2022-12-11T19:24:59.723Z,21.30
2022-12-11T19:27:09.967Z,20.35
2022-12-11T19:29:23.653Z,21.08
2022-12-11T19:31:30.768Z,23.75
2022-12-11T19:33:38.375Z,25.73
2022-12-11T19:35:43.482Z,24.08
2022-12-11T19:37:50.608Z,23.33
2022-12-11T19:39:55.652Z,22.77
2022-12-11T19:42:00.481Z,21.50
2022-12-11T19:44:05.354Z,21.67
2022-12-11T19:46:11.580Z,22.38
2022-12-11T19:48:16.554Z,20.45
2022-12-11T19:50:23.949Z,20.83
2022-12-11T19:52:28.845Z,22.65
2022-12-11T19:54:33.610Z,22.98
2022-12-11T19:56:38.951Z,22.65
2022-12-11T20:00:50.271Z,22.63
2022-12-11T20:02:55.299Z,21.13
2022-12-11T20:05:01.188Z,21.35
2022-12-11T20:07:09.487Z,20.52
2022-12-11T20:09:15.666Z,22.20
2022-12-11T20:11:20.834Z,21.92
2022-12-11T20:13:25.696Z,23.20
2022-12-11T20:15:31.928Z,24.15
2022-12-11T20:17:38.100Z,24.02
2022-12-11T20:19:43.521Z,22.98
2022-12-11T20:21:48.310Z,24.63
2022-12-11T20:23:56.025Z,23.27
2022-12-11T20:26:00.849Z,23.05
2022-12-11T20:28:05.815Z,22.60
2022-12-11T20:30:11.739Z,23.85
2022-12-11T20:32:16.953Z,23.67
2022-12-11T20:34:22.739Z,21.70
2022-12-11T20:36:28.360Z,21.48
2022-12-11T20:38:34.554Z,21.73
2022-12-11T20:40:42.107Z,20.77
2022-12-11T20:42:46.947Z,22.73
2022-12-11T20:44:51.911Z,22.98
2022-12-11T20:46:56.667Z,21.27
2022-12-11T20:49:01.802Z,20.90
2022-12-11T20:53:13.663Z,20.77
2022-12-11T20:55:18.562Z,20.83
2022-12-11T20:57:26.083Z,20.83
2022-12-11T20:59:30.886Z,22.08
2022-12-11T21:01:35.995Z,23.33
2022-12-11T21:03:42.267Z,20.95
2022-12-11T21:05:49.030Z,20.52
2022-12-11T21:07:56.342Z,20.52
2022-12-11T21:10:01.162Z,20.77
2022-12-11T21:12:06.356Z,21.52
2022-12-11T21:14:13.875Z,20.55
2022-12-11T21:16:18.706Z,22.35
2022-12-11T21:18:23.547Z,19.80
2022-12-11T21:20:28.693Z,21.33
2022-12-11T21:22:34.091Z,20.63
2022-12-11T21:24:39.105Z,21.52
2022-12-11T21:28:48.514Z,20.63
2022-12-11T21:30:55.948Z,20.70
2022-12-11T21:33:01.262Z,21.00
2022-12-11T21:35:06.157Z,21.77
2022-12-11T21:37:11.108Z,20.30
2022-12-11T21:39:16.875Z,20.20
2022-12-11T21:41:24.144Z,22.52
2022-12-11T21:43:28.978Z,21.15
2022-12-11T21:46:00.467Z,19.58
2022-12-11T21:48:06.273Z,20.92
2022-12-11T21:50:11.410Z,22.05
2022-12-11T21:54:21.717Z,22.23
2022-12-11T21:56:30.590Z,19.58
2022-12-11T21:58:36.048Z,19.50
2022-12-11T22:00:41.618Z,19.63
2022-12-11T22:02:46.496Z,20.75
2022-12-11T22:04:54.032Z,21.25
2022-12-11T22:06:59.858Z,18.70
2022-12-11T22:09:05.263Z,20.40
2022-12-11T22:11:10.461Z,19.38
2022-12-11T22:15:19.868Z,19.77
2022-12-11T22:17:24.740Z,20.00
2022-12-11T22:19:32.670Z,20.67
2022-12-11T22:21:41.022Z,20.90
2022-12-11T22:23:46.570Z,21.10
2022-12-11T22:25:51.966Z,19.25
2022-12-11T22:27:56.760Z,20.30
2022-12-11T22:30:01.571Z,20.48
2022-12-11T22:32:06.689Z,19.90
2022-12-11T22:36:17.898Z,21.35
2022-12-11T22:38:26.625Z,21.80
2022-12-11T22:40:32.425Z,20.02
2022-12-11T22:42:37.239Z,20.55
2022-12-11T22:44:42.580Z,20.95
2022-12-11T22:46:50.304Z,21.17
2022-12-11T22:48:56.043Z,19.77
2022-12-11T22:51:00.843Z,19.52
2022-12-11T22:53:06.213Z,20.65
2022-12-11T22:55:14.872Z,19.77
2022-12-11T22:57:19.830Z,19.88
2022-12-11T22:59:24.708Z,19.50
2022-12-11T23:01:30.818Z,19.65
2022-12-11T23:03:35.607Z,20.98
2022-12-11T23:05:43.385Z,19.52
2022-12-11T23:07:48.275Z,19.17
2022-12-11T23:09:53.132Z,20.70
2022-12-11T23:12:01.722Z,19.65
2022-12-11T23:14:07.539Z,18.65
2022-12-11T23:16:13.366Z,20.48
2022-12-11T23:18:18.131Z,18.88
2022-12-11T23:20:23.287Z,18.85
2022-12-11T23:22:28.039Z,18.90
2022-12-11T23:24:34.052Z,20.48
2022-12-11T23:26:39.644Z,21.02
2022-12-11T23:28:47.698Z,20.23
2022-12-11T23:30:52.519Z,20.40
2022-12-11T23:32:57.368Z,19.92
2022-12-11T23:35:02.152Z,20.45
2022-12-11T23:39:12.356Z,20.85
2022-12-11T23:41:19.335Z,18.58
2022-12-11T23:43:24.700Z,17.98
2022-12-11T23:45:32.170Z,19.90
2022-12-11T23:47:36.944Z,18.73
2022-12-11T23:49:41.754Z,18.65
2022-12-11T23:51:46.576Z,18.63
2022-12-11T23:53:52.026Z,21.17
2022-12-11T23:55:57.238Z,20.52
